Time;durP1;ratioP1;P1;durP2;ratioP2;P2;SDS_P1;SDS_P2;PMS_P1;PMS_P2;Temp;Humidity;BMP_temperature;BMP_pressure;BME280_temperature;BME280_humidity;BME280_pressure;Samples;Min_cycle;Max_cycle;Signal;HPM_P1;HPM_P2
2024/01/21 00:01:55;;;;;;;10.43;5.40;;;;;;;-141.97;100.00;46239.25;5052981;28;20183;-86
2024/01/21 00:04:21;;;;;;;6.50;3.90;;;;;;;-141.97;100.00;46519.75;5071302;28;20212;-86
2024/01/21 00:06:46;;;;;;;8.07;4.60;;;;;;;-141.97;100.00;46617.75;5072001;28;20197;-86
2024/01/21 00:09:12;;;;;;;9.57;5.20;;;;;;;-141.97;100.00;46285.34;5049345;28;20181;-86
2024/01/21 00:11:37;;;;;;;10.77;4.77;;;;;;;-141.97;100.00;46612.00;5063509;28;20173;-86
2024/01/21 00:14:03;;;;;;;8.70;4.80;;;;;;;-141.97;100.00;46304.56;5072247;28;20168;-84
2024/01/21 00:16:28;;;;;;;8.40;3.97;;;;;;;-141.97;100.00;46362.22;5093748;28;20188;-86
2024/01/21 00:18:54;;;;;;;9.17;5.00;;;;;;;-141.97;100.00;46744.59;5068492;28;20744;-87
2024/01/21 00:21:19;;;;;;;10.20;5.17;;;;;;;-141.97;100.00;46450.59;5052417;28;20181;-86
2024/01/21 00:23:46;;;;;;;8.93;4.90;;;;;;;-141.97;100.00;46331.47;5051355;28;20201;-86
2024/01/21 00:26:12;;;;;;;10.60;5.60;;;;;;;-141.97;100.00;46300.72;5051295;28;20169;-86
2024/01/21 00:28:37;;;;;;;10.50;5.50;;;;;;;-141.97;100.00;46308.41;5051061;28;20446;-86
2024/01/21 00:31:03;;;;;;;20.77;11.07;;;;;;;-141.97;100.00;46389.09;5051594;28;20180;-86
2024/01/21 00:33:29;;;;;;;15.07;7.70;;;;;;;-141.97;100.00;46631.22;5050967;28;20173;-86
2024/01/21 00:35:54;;;;;;;17.57;8.60;;;;;;;-141.97;100.00;46223.88;5050307;28;20408;-86
2024/01/21 00:38:19;;;;;;;16.33;8.00;;;;;;;-141.97;100.00;46446.75;5049742;28;20542;-85
2024/01/21 00:40:45;;;;;;;16.97;7.30;;;;;;;-141.97;100.00;46135.50;5050185;28;20579;-85
2024/01/21 00:43:10;;;;;;;14.20;7.00;;;;;;;-141.97;100.00;46312.25;5049630;28;20172;-85
2024/01/21 00:45:36;;;;;;;18.37;9.07;;;;;;;-141.97;100.00;46350.69;5054569;28;20693;-85
2024/01/21 00:48:01;;;;;;;15.93;7.77;;;;;;;-141.97;100.00;46456.34;5050196;28;20177;-85
2024/01/21 00:50:27;;;;;;;14.83;6.57;;;;;;;-141.97;100.00;46442.91;5049393;28;20169;-85
2024/01/21 00:52:52;;;;;;;18.70;8.60;;;;;;;-141.97;100.00;46596.63;5049969;28;20165;-86
2024/01/21 00:55:18;;;;;;;17.93;8.57;;;;;;;-141.97;100.00;46654.28;5049940;28;20170;-86
2024/01/21 00:57:44;;;;;;;15.13;6.90;;;;;;;-141.97;100.00;46147.03;5050141;28;20180;-85
2024/01/21 01:00:10;;;;;;;14.50;6.83;;;;;;;-141.97;100.00;46366.06;5050066;28;20404;-86
2024/01/21 01:02:36;;;;;;;14.60;6.43;;;;;;;-141.97;100.00;46535.13;5050100;28;20173;-85
2024/01/21 01:05:01;;;;;;;18.10;8.13;;;;;;;-141.97;100.00;46354.53;5048526;28;20470;-86
2024/01/21 01:07:27;;;;;;;16.03;6.97;;;;;;;-141.97;100.00;46629.28;5049922;28;20234;-86
2024/01/21 01:09:52;;;;;;;18.83;8.17;;;;;;;-141.97;100.00;46389.09;5050061;28;20225;-87
2024/01/21 01:12:18;;;;;;;14.23;7.20;;;;;;;-141.97;100.00;46638.91;5067056;28;20636;-85
2024/01/21 01:14:43;;;;;;;15.63;8.13;;;;;;;-141.97;100.00;46489.03;5069895;28;20633;-86
2024/01/21 01:17:09;;;;;;;22.43;11.40;;;;;;;-141.97;100.00;46381.41;5070062;28;20607;-86
2024/01/21 01:19:34;;;;;;;17.63;7.77;;;;;;;-141.97;100.00;46612.00;5050531;28;20267;-85
2024/01/21 01:22:01;;;;;;;15.60;7.17;;;;;;;-141.97;100.00;46658.13;5062677;28;20696;-88
2024/01/21 01:24:26;;;;;;;16.90;8.47;;;;;;;-141.97;100.00;46323.78;5051578;28;20200;-88
2024/01/21 01:26:51;;;;;;;18.67;10.33;;;;;;;-141.97;100.00;46650.44;5070047;28;20899;-86
2024/01/21 01:29:17;;;;;;;18.10;9.57;;;;;;;-141.97;100.00;46250.78;5052217;28;20180;-86
2024/01/21 01:31:42;;;;;;;15.00;7.37;;;;;;;-141.97;100.00;46273.81;5070283;28;20175;-87
2024/01/21 01:34:08;;;;;;;13.57;7.70;;;;;;;-141.97;100.00;46596.63;5070439;28;20192;-87
2024/01/21 01:36:56;;;;;;;15.07;8.03;;;;;;;-141.97;100.00;46343.00;5072534;28;20169;-87
2024/01/21 01:39:22;;;;;;;19.93;8.93;;;;;;;-141.97;100.00;46135.50;5052411;28;20220;-86
2024/01/21 01:41:47;;;;;;;19.43;8.87;;;;;;;-141.97;100.00;46337.22;5071140;28;20472;-86
2024/01/21 01:44:13;;;;;;;16.33;8.27;;;;;;;-141.97;100.00;46452.50;5055259;28;20283;-86
2024/01/21 01:46:38;;;;;;;14.63;7.83;;;;;;;-141.97;100.00;46358.38;5071263;28;20173;-86
2024/01/21 01:49:04;;;;;;;13.93;7.40;;;;;;;-141.97;100.00;46233.47;5060823;28;20199;-87
2024/01/21 01:51:32;;;;;;;15.87;7.27;;;;;;;-141.97;100.00;46358.38;5090619;28;20160;-86
2024/01/21 01:53:58;;;;;;;14.10;7.40;;;;;;;-141.97;100.00;46241.16;5076370;28;20200;-86
2024/01/21 01:56:24;;;;;;;17.70;8.43;;;;;;;-141.97;100.00;46477.50;5061719;28;20418;-86
2024/01/21 01:59:10;;;;;;;14.90;7.27;;;;;;;-141.97;100.00;46389.09;5077397;28;20173;-87
2024/01/21 02:01:38;;;;;;;16.87;8.00;;;;;;;-141.97;100.00;46148.94;5076884;28;20163;-86
2024/01/21 02:04:09;;;;;;;18.07;8.10;;;;;;;-141.97;100.00;46515.91;5075896;28;20461;-86
2024/01/21 02:06:34;;;;;;;20.03;9.60;;;;;;;-141.97;100.00;46148.94;5075184;28;20391;-86
2024/01/21 02:09:00;;;;;;;19.90;8.93;;;;;;;-141.97;100.00;46377.56;5076307;28;20410;-86
2024/01/21 02:11:25;;;;;;;21.10;8.67;;;;;;;-141.97;100.00;46360.28;5075531;28;20637;-87
2024/01/21 02:13:50;;;;;;;21.10;9.93;;;;;;;-141.97;100.00;46360.28;5077624;28;20169;-87
2024/01/21 02:16:16;;;;;;;21.63;9.80;;;;;;;-141.97;100.00;46600.47;5058551;28;20169;-86
2024/01/21 02:18:46;;;;;;;16.87;8.10;;;;;;;-141.97;100.00;46379.50;5077347;28;20252;-86
2024/01/21 02:21:12;;;;;;;17.20;8.50;;;;;;;-141.97;100.00;46204.66;5058043;28;20192;-86
2024/01/21 02:23:38;;;;;;;22.67;9.67;;;;;;;-141.97;100.00;46723.44;5074358;28;20430;-87
2024/01/21 02:26:03;;;;;;;18.47;8.90;;;;;;;-141.97;100.00;46694.63;5059427;28;20264;-87
2024/01/21 02:28:29;;;;;;;17.73;7.67;;;;;;;-141.97;100.00;46264.22;5075656;28;20176;-87
2024/01/21 02:30:54;;;;;;;15.07;7.20;;;;;;;-141.97;100.00;46285.34;5076745;28;20161;-87
2024/01/21 02:33:19;;;;;;;14.73;6.70;;;;;;;-141.97;100.00;46556.28;5058164;28;20338;-86
2024/01/21 02:35:45;;;;;;;13.27;6.10;;;;;;;-141.97;100.00;46260.38;5092635;28;20208;-88
2024/01/21 02:38:10;;;;;;;13.97;6.40;;;;;;;-141.97;100.00;46220.03;5096940;28;20283;-86
2024/01/21 02:40:38;;;;;;;13.33;6.87;;;;;;;-141.97;100.00;46250.78;5076744;28;20229;-86
2024/01/21 02:43:04;;;;;;;15.27;7.20;;;;;;;-141.97;100.00;46371.81;5073093;28;20629;-88
2024/01/21 02:45:30;;;;;;;14.60;6.63;;;;;;;-141.97;100.00;46408.31;5072806;28;20897;-87
2024/01/21 02:47:56;;;;;;;15.60;6.93;;;;;;;-141.97;100.00;46379.50;5073036;28;20403;-88
2024/01/21 02:50:21;;;;;;;18.73;7.03;;;;;;;-141.97;100.00;46150.84;5054952;28;20184;-87
2024/01/21 02:52:46;;;;;;;16.03;7.10;;;;;;;-141.97;100.00;46246.94;5073240;28;20247;-88
2024/01/21 02:55:12;;;;;;;13.67;6.83;;;;;;;-141.97;100.00;46275.75;5072849;28;20165;-87
2024/01/21 02:57:37;;;;;;;15.57;6.87;;;;;;;-141.97;100.00;46688.84;5071998;28;20172;-87
2024/01/21 03:00:04;;;;;;;13.60;6.53;;;;;;;-141.97;100.00;46631.22;5072430;28;20300;-87
2024/01/21 03:02:31;;;;;;;14.27;6.77;;;;;;;-141.97;100.00;46271.91;5072186;28;20185;-88
2024/01/21 03:04:56;;;;;;;14.33;6.37;;;;;;;-141.97;100.00;46331.47;5072755;28;20550;-87
2024/01/21 03:07:21;;;;;;;16.77;6.60;;;;;;;-141.97;100.00;46377.56;5073049;28;20438;-87
2024/01/21 03:09:47;;;;;;;16.50;5.93;;;;;;;-141.97;100.00;46348.75;5072509;28;20627;-88
2024/01/21 03:12:12;;;;;;;14.17;6.30;;;;;;;-141.97;100.00;46266.13;5054015;28;20804;-86
2024/01/21 03:14:40;;;;;;;14.80;6.43;;;;;;;-141.97;100.00;46304.56;5077112;28;20309;-86
2024/01/21 03:17:05;;;;;;;14.87;6.93;;;;;;;-141.97;100.00;46373.72;5076796;28;20298;-87
2024/01/21 03:19:31;;;;;;;14.30;6.53;;;;;;;-141.97;100.00;46310.31;5054901;28;20506;-87
2024/01/21 03:21:56;;;;;;;15.50;6.17;;;;;;;-141.97;100.00;46656.19;5054492;28;20263;-87
2024/01/21 03:24:22;;;;;;;12.47;6.37;;;;;;;-141.97;100.00;46243.09;5073705;28;20510;-86
2024/01/21 03:26:48;;;;;;;12.90;6.10;;;;;;;-141.97;100.00;46258.44;5057821;28;20264;-88
2024/01/21 03:29:25;;;;;;;13.73;6.03;;;;;;;-141.97;100.00;46385.25;5057374;28;20179;-90
2024/01/21 03:31:51;;;;;;;14.17;6.20;;;;;;;-141.97;100.00;46763.81;5016643;28;20197;-88
2024/01/21 03:34:18;;;;;;;14.10;6.63;;;;;;;-141.97;100.00;46379.50;5020561;28;21194;-87
2024/01/21 03:36:44;;;;;;;14.70;6.63;;;;;;;-141.97;100.00;46738.81;5033046;28;20233;-87
2024/01/21 03:39:09;;;;;;;15.50;6.93;;;;;;;-141.97;100.00;46377.56;5031210;28;20567;-87
2024/01/21 03:41:34;;;;;;;14.27;6.50;;;;;;;-141.97;100.00;46239.25;5035803;28;20189;-86
2024/01/21 03:44:01;;;;;;;15.33;6.87;;;;;;;-141.97;100.00;46358.38;5031973;28;20194;-88
2024/01/21 03:46:29;;;;;;;13.40;6.33;;;;;;;-141.97;100.00;46381.41;5018129;28;20311;-87
2024/01/21 03:48:54;;;;;;;14.90;6.47;;;;;;;-141.97;100.00;46612.00;5032365;28;20584;-87
2024/01/21 03:51:20;;;;;;;14.53;6.23;;;;;;;-141.97;100.00;46771.50;5035299;28;20421;-86
2024/01/21 03:53:45;;;;;;;14.87;6.47;;;;;;;-141.97;100.00;46400.63;5048249;28;20162;-86
2024/01/21 03:56:19;;;;;;;16.57;6.90;;;;;;;-141.97;100.00;46369.88;5021236;28;20174;-87
2024/01/21 03:58:45;;;;;;;16.03;6.57;;;;;;;-141.97;100.00;46375.66;5029701;28;20664;-87
2024/01/21 04:01:10;;;;;;;14.37;6.20;;;;;;;-141.97;100.00;46592.78;5016405;28;20500;-86
2024/01/21 04:03:36;;;;;;;20.83;7.27;;;;;;;-141.97;100.00;46398.72;5062135;28;20687;-87
2024/01/21 04:06:01;;;;;;;20.70;8.27;;;;;;;-141.97;100.00;46761.88;5086237;28;20199;-87
2024/01/21 04:08:27;;;;;;;20.20;8.17;;;;;;;-141.97;100.00;46339.16;5095901;28;20156;-87
2024/01/21 04:10:54;;;;;;;21.23;7.77;;;;;;;-141.97;100.00;46412.16;5095641;28;20172;-87
2024/01/21 04:13:20;;;;;;;17.63;6.40;;;;;;;-141.97;100.00;46319.94;5089921;28;20161;-87
2024/01/21 04:15:46;;;;;;;20.93;8.23;;;;;;;-141.97;100.00;46293.03;5081996;28;20408;-87
2024/01/21 04:18:11;;;;;;;22.47;8.43;;;;;;;-141.97;100.00;46343.00;5074767;28;20407;-88
2024/01/21 04:20:36;;;;;;;22.47;8.80;;;;;;;-141.97;100.00;46269.97;5053173;28;20207;-88
2024/01/21 04:23:02;;;;;;;17.10;7.60;;;;;;;-141.97;100.00;46763.81;5053403;28;20234;-86
2024/01/21 04:25:27;;;;;;;19.97;8.53;;;;;;;-141.97;100.00;46331.47;5070918;28;20585;-86
2024/01/21 04:27:53;;;;;;;19.13;7.87;;;;;;;-141.97;100.00;46243.09;5070633;28;20164;-88
2024/01/21 04:30:18;;;;;;;20.83;8.90;;;;;;;-141.97;100.00;46293.03;5070576;28;20192;-87
2024/01/21 04:32:43;;;;;;;21.07;8.80;;;;;;;-141.97;100.00;46414.09;5052670;28;20164;-88
2024/01/21 04:35:09;;;;;;;21.50;8.53;;;;;;;-141.97;100.00;46373.72;5070613;28;20218;-87
2024/01/21 04:37:34;;;;;;;25.20;10.13;;;;;;;-141.97;100.00;46335.31;5070997;28;20222;-88
2024/01/21 04:40:00;;;;;;;25.27;10.37;;;;;;;-141.97;100.00;46243.09;5070511;28;20228;-88
2024/01/21 04:42:26;;;;;;;25.00;10.33;;;;;;;-141.97;100.00;46364.13;5070526;28;20170;-87
2024/01/21 04:44:51;;;;;;;27.43;11.63;;;;;;;-141.97;100.00;46289.19;5070391;28;20254;-88
2024/01/21 04:47:16;;;;;;;34.90;15.63;;;;;;;-141.97;100.00;46162.38;5070376;28;20256;-88
2024/01/21 04:49:42;;;;;;;28.13;12.53;;;;;;;-141.97;100.00;46708.06;5066995;28;20173;-88
2024/01/21 04:52:07;;;;;;;27.40;11.33;;;;;;;-141.97;100.00;46406.41;5050959;28;20169;-86
2024/01/21 04:54:33;;;;;;;25.23;10.10;;;;;;;-141.97;100.00;46179.69;5050243;28;20276;-87
2024/01/21 04:56:58;;;;;;;32.00;12.20;;;;;;;-141.97;100.00;46596.63;5050047;28;20637;-86
2024/01/21 04:59:23;;;;;;;28.60;11.57;;;;;;;-141.97;100.00;46419.84;5032136;28;20169;-87
2024/01/21 05:01:49;;;;;;;27.27;11.97;;;;;;;-141.97;100.00;46642.75;5032507;28;20557;-86
2024/01/21 05:04:15;;;;;;;26.77;11.67;;;;;;;-141.97;100.00;46235.41;5032316;28;20669;-87
2024/01/21 05:06:40;;;;;;;70.70;33.20;;;;;;;-141.97;100.00;46344.91;5032333;28;20423;-87
2024/01/21 05:09:06;;;;;;;74.63;35.27;;;;;;;-141.97;100.00;46218.09;5031971;28;20252;-87
2024/01/21 05:11:31;;;;;;;70.30;31.23;;;;;;;-141.97;100.00;46391.03;5050650;28;20609;-86
2024/01/21 05:13:57;;;;;;;64.00;26.17;;;;;;;-141.97;100.00;46300.72;5052385;28;20174;-86
2024/01/21 05:16:22;;;;;;;69.67;28.27;;;;;;;-141.97;100.00;46690.78;5055863;28;20668;-87
2024/01/21 05:18:48;;;;;;;66.77;28.60;;;;;;;-141.97;100.00;46381.41;5033263;28;20199;-85
2024/01/21 05:21:20;;;;;;;62.50;26.37;;;;;;;-141.97;100.00;46273.81;5032422;28;20213;-88
2024/01/21 05:23:50;;;;;;;46.60;19.30;;;;;;;-141.97;100.00;46594.69;5049733;28;20668;-88
2024/01/21 05:26:16;;;;;;;43.50;17.83;;;;;;;-141.97;100.00;46289.19;5031617;28;20506;-87
2024/01/21 05:28:41;;;;;;;49.20;19.33;;;;;;;-141.97;100.00;46304.56;5031562;28;20497;-88
2024/01/21 05:31:07;;;;;;;47.33;18.77;;;;;;;-141.97;100.00;46667.72;5031618;28;20338;-88
2024/01/21 05:33:34;;;;;;;71.23;25.70;;;;;;;-141.97;100.00;46450.59;5050127;28;20177;-88
2024/01/21 05:35:59;;;;;;;71.88;26.50;;;;;;;-141.97;100.00;46648.50;5031813;28;20169;-87
2024/01/21 05:38:24;;;;;;;66.10;24.00;;;;;;;-141.97;100.00;46300.72;5032257;28;20179;-88
2024/01/21 05:40:50;;;;;;;65.00;25.23;;;;;;;-141.97;100.00;46412.16;5050033;28;20166;-87
2024/01/21 05:43:15;;;;;;;100.90;40.90;;;;;;;-141.97;100.00;46619.69;5049793;28;20173;-88
2024/01/21 05:45:41;;;;;;;89.87;38.63;;;;;;;-141.97;100.00;46335.31;5049762;28;20733;-87
2024/01/21 05:48:07;;;;;;;199.47;63.67;;;;;;;-141.97;100.00;46652.34;5049727;28;20219;-87
2024/01/21 05:50:32;;;;;;;96.27;36.73;;;;;;;-141.97;100.00;46304.56;5049662;28;20253;-88
2024/01/21 05:52:58;;;;;;;52.77;21.17;;;;;;;-141.97;100.00;46673.47;5049642;28;20515;-88
2024/01/21 05:55:23;;;;;;;52.27;19.30;;;;;;;-141.97;100.00;46273.81;5031998;28;20695;-87
2024/01/21 05:57:48;;;;;;;57.83;24.87;;;;;;;-141.97;100.00;46408.31;5032070;28;20178;-88
2024/01/21 06:00:14;;;;;;;89.97;35.97;;;;;;;-141.97;100.00;46266.13;5032109;28;20184;-88
2024/01/21 06:02:42;;;;;;;86.40;34.63;;;;;;;-141.97;100.00;46419.84;5051542;28;20180;-86
2024/01/21 06:05:07;;;;;;;90.13;33.47;;;;;;;-141.97;100.00;46273.81;5050354;28;20200;-87
2024/01/21 06:07:32;;;;;;;107.67;36.80;;;;;;;-141.97;100.00;46698.47;5031463;28;20466;-87
2024/01/21 06:09:58;;;;;;;90.57;24.90;;;;;;;-141.97;100.00;46717.69;5031441;28;20178;-88
2024/01/21 06:12:24;;;;;;;148.37;28.13;;;;;;;-141.97;100.00;46408.31;5032035;28;20640;-87
2024/01/21 06:14:50;;;;;;;201.23;58.60;;;;;;;-141.97;100.00;46260.38;5052117;28;20231;-88
2024/01/21 06:17:15;;;;;;;298.37;85.43;;;;;;;-141.97;100.00;46367.97;5033743;28;20408;-88
2024/01/21 06:19:41;;;;;;;242.53;79.13;;;;;;;-141.97;100.00;46425.63;5032135;28;20181;-87
2024/01/21 06:22:06;;;;;;;370.17;110.77;;;;;;;-141.97;100.00;46673.47;5053201;28;20166;-88
2024/01/21 06:24:35;;;;;;;419.87;145.93;;;;;;;-141.97;100.00;46321.84;5054021;28;20197;-87
2024/01/21 06:27:00;;;;;;;464.50;170.57;;;;;;;-141.97;100.00;46439.06;5037730;28;20215;-88
2024/01/21 06:29:26;;;;;;;473.43;160.43;;;;;;;-141.97;100.00;46362.22;5066260;28;20408;-87
2024/01/21 06:31:51;;;;;;;425.20;144.17;;;;;;;-141.97;100.00;46377.56;5055091;28;20225;-87
2024/01/21 06:34:17;;;;;;;369.40;124.03;;;;;;;-141.97;100.00;46306.50;5034866;28;20181;-88
2024/01/21 06:36:45;;;;;;;403.00;138.03;;;;;;;-141.97;100.00;46185.44;5058067;28;20157;-88
2024/01/21 06:39:10;;;;;;;426.67;155.30;;;;;;;-141.97;100.00;46321.84;5041944;28;20731;-87
2024/01/21 06:41:36;;;;;;;422.60;153.50;;;;;;;-141.97;100.00;46794.53;5058337;28;20157;-90
2024/01/21 06:44:02;;;;;;;448.43;171.53;;;;;;;-141.97;100.00;46271.91;5057973;28;20671;-89
2024/01/21 06:46:27;;;;;;;427.00;162.00;;;;;;;-141.97;100.00;46711.91;5055439;28;20165;-89
2024/01/21 06:48:52;;;;;;;582.77;277.50;;;;;;;-141.97;100.00;46277.66;5039296;28;20260;-89
2024/01/21 06:54:03;;;;;;;329.50;130.43;;;;;;;-141.97;100.00;46377.56;5061607;28;20236;-89
2024/01/21 06:56:31;;;;;;;337.93;129.20;;;;;;;-141.97;100.00;46446.75;5040997;28;20416;-89
2024/01/21 06:58:57;;;;;;;243.90;89.30;;;;;;;-141.97;100.00;46250.78;5041963;28;20488;-89
2024/01/21 07:01:25;;;;;;;153.87;56.80;;;;;;;-141.97;100.00;46327.63;5057846;28;20437;-89
2024/01/21 07:03:50;;;;;;;223.47;83.33;;;;;;;-141.97;100.00;46402.56;5041146;28;20165;-89
2024/01/21 07:06:16;;;;;;;193.67;70.97;;;;;;;-141.97;100.00;46375.66;5042146;28;20423;-90
2024/01/21 07:08:42;;;;;;;137.50;49.07;;;;;;;-141.97;100.00;46360.28;5035832;28;20176;-89
2024/01/21 07:11:08;;;;;;;58.73;24.57;;;;;;;-141.97;100.00;46366.06;5036589;28;20337;-90
2024/01/21 07:13:33;;;;;;;73.88;27.70;;;;;;;-141.97;100.00;46414.09;5054268;28;20176;-89
2024/01/21 07:15:59;;;;;;;83.37;29.83;;;;;;;-141.97;100.00;46325.69;5054598;28;20165;-89
2024/01/21 07:18:25;;;;;;;72.83;23.67;;;;;;;-141.97;100.00;46258.44;5035365;28;20622;-89
2024/01/21 07:20:50;;;;;;;69.85;22.35;;;;;;;-141.97;100.00;46371.81;5038885;28;20679;-90
2024/01/21 07:23:16;;;;;;;56.80;22.00;;;;;;;-141.97;100.00;46241.16;5059554;28;20271;-89
2024/01/21 07:25:42;;;;;;;107.73;38.63;;;;;;;-141.97;100.00;46343.00;5058996;28;20232;-89
2024/01/21 07:28:07;;;;;;;65.07;20.63;;;;;;;-141.97;100.00;46339.16;5059528;28;20165;-87
2024/01/21 07:30:33;;;;;;;46.63;16.80;;;;;;;-141.97;100.00;46377.56;5048908;28;20188;-87
2024/01/21 07:33:01;;;;;;;48.30;17.20;;;;;;;-141.97;100.00;46206.56;5050288;28;20268;-86
2024/01/21 07:35:27;;;;;;;39.00;15.00;;;;;;;-141.97;100.00;46112.44;5044317;28;20165;-89
2024/01/21 07:37:52;;;;;;;33.23;14.20;;;;;;;-141.97;100.00;46185.44;5056974;28;20663;-88
2024/01/21 07:40:17;;;;;;;39.37;13.23;;;;;;;-141.97;100.00;46147.03;5036178;28;20241;-89
2024/01/21 07:42:43;;;;;;;43.43;13.00;;;;;;;-141.97;100.00;46727.28;5052628;28;20177;-89
2024/01/21 07:45:09;;;;;;;32.43;12.73;;;;;;;-141.97;100.00;46323.78;5087367;22;20237;-90
2024/01/21 07:47:34;;;;;;;32.57;11.37;;;;;;;-141.97;100.00;46638.91;5057975;28;20172;-89
2024/01/21 07:50:00;;;;;;;33.57;12.77;;;;;;;-141.97;100.00;46210.41;5055491;28;20257;-89
2024/01/21 07:52:25;;;;;;;33.80;15.27;;;;;;;-141.97;100.00;46688.84;5054724;28;20166;-88
2024/01/21 07:54:51;;;;;;;39.00;14.33;;;;;;;-141.97;100.00;46239.25;5057050;28;20173;-89
2024/01/21 07:57:16;;;;;;;34.47;13.17;;;;;;;-141.97;100.00;46677.31;5038313;28;20174;-89
2024/01/21 07:59:41;;;;;;;28.53;11.60;;;;;;;-141.97;100.00;46439.06;5056780;28;20174;-88
2024/01/21 08:02:08;;;;;;;25.20;11.77;;;;;;;-141.97;100.00;46200.81;5036989;28;20166;-88
2024/01/21 08:04:33;;;;;;;30.33;12.98;;;;;;;-141.97;100.00;46343.00;5036867;28;20683;-88
2024/01/21 08:06:59;;;;;;;47.60;19.97;;;;;;;-141.97;100.00;46344.91;5055171;28;20169;-89
2024/01/21 08:09:25;;;;;;;41.63;18.50;;;;;;;-141.97;100.00;46123.97;5039629;28;20248;-90
2024/01/21 08:11:51;;;;;;;66.10;30.13;;;;;;;-141.97;100.00;46677.31;5054124;28;20214;-88
2024/01/21 08:14:16;;;;;;;66.47;28.70;;;;;;;-141.97;100.00;46235.41;5039420;28;20165;-89
2024/01/21 08:16:41;;;;;;;100.87;40.57;;;;;;;-141.97;100.00;46508.22;5055173;28;20177;-89
2024/01/21 08:19:07;;;;;;;207.90;75.90;;;;;;;-141.97;100.00;46045.19;5056722;28;20226;-87
2024/01/21 08:21:32;;;;;;;119.93;44.53;;;;;;;-141.97;100.00;46043.28;5053714;28;20169;-89
2024/01/21 08:23:59;;;;;;;54.50;23.23;;;;;;;-141.97;100.00;46383.34;5054157;28;20663;-90
2024/01/21 08:26:24;;;;;;;59.63;27.13;;;;;;;-141.97;100.00;46473.66;5038150;28;20296;-88
2024/01/21 08:28:53;;;;;;;69.00;32.77;;;;;;;-141.97;100.00;46025.97;5038861;28;20526;-90
2024/01/21 08:31:18;;;;;;;72.80;34.73;;;;;;;-141.97;100.00;46352.59;5038819;28;20667;-90
2024/01/21 08:33:44;;;;;;;74.83;36.40;;;;;;;-141.97;100.00;46675.41;5055782;28;20462;-90
2024/01/21 08:36:09;;;;;;;76.90;34.47;;;;;;;-141.97;100.00;46660.03;5045580;28;20162;-90
2024/01/21 08:38:36;;;;;;;91.57;39.50;;;;;;;-141.97;100.00;46054.81;5054836;28;20176;-90
2024/01/21 08:41:02;;;;;;;61.83;28.77;;;;;;;-141.97;100.00;46504.38;5054597;28;20198;-89
2024/01/21 08:43:27;;;;;;;74.67;32.80;;;;;;;-141.97;100.00;46615.84;5071500;28;20491;-90
2024/01/21 08:45:53;;;;;;;69.67;32.83;;;;;;;-141.97;100.00;46097.06;5074287;28;20517;-90
2024/01/21 08:48:18;;;;;;;67.53;32.33;;;;;;;-141.97;100.00;46562.03;5075731;28;20172;-90
2024/01/21 08:50:44;;;;;;;83.33;39.93;;;;;;;-141.97;100.00;46064.41;5075222;28;20157;-90
2024/01/21 08:53:10;;;;;;;81.33;37.37;;;;;;;-141.97;100.00;45908.78;5089600;22;20221;-90
2024/01/21 08:55:35;;;;;;;80.13;39.97;;;;;;;-141.97;100.00;46001.00;5045378;28;20186;-89
2024/01/21 08:58:02;;;;;;;71.67;35.73;;;;;;;-141.97;100.00;46104.75;5021987;28;20573;-90
2024/01/21 09:00:27;;;;;;;76.43;39.30;;;;;;;-141.97;100.00;46027.91;5032056;28;20658;-89
2024/01/21 09:02:53;;;;;;;79.53;38.97;;;;;;;-141.97;100.00;46089.38;5031180;28;20444;-89
2024/01/21 09:05:18;;;;;;;79.70;39.70;;;;;;;-141.97;100.00;46269.97;5030545;28;20225;-89
2024/01/21 09:07:44;;;;;;;58.47;28.10;;;;;;;-141.97;100.00;46467.88;5031632;28;20182;-88
2024/01/21 09:10:09;;;;;;;75.53;35.40;;;;;;;-141.97;100.00;46156.63;5016849;28;20210;-87
2024/01/21 09:12:35;;;;;;;68.23;35.47;;;;;;;-141.97;100.00;46148.94;5039245;28;20171;-87
2024/01/21 09:15:02;;;;;;;63.57;33.20;;;;;;;-141.97;100.00;46635.06;5011315;28;20316;-89
2024/01/21 09:17:29;;;;;;;43.53;23.47;;;;;;;-141.97;100.00;46179.69;5026437;28;20690;-89
2024/01/21 09:19:54;;;;;;;47.97;25.07;;;;;;;-141.97;100.00;46269.97;5030355;28;20422;-88
2024/01/21 09:22:20;;;;;;;35.90;21.30;;;;;;;-141.97;100.00;46077.84;5027816;28;20174;-88
2024/01/21 09:24:45;;;;;;;55.87;29.37;;;;;;;-141.97;100.00;46271.91;5027808;28;20210;-89
2024/01/21 09:27:11;;;;;;;35.20;18.53;;;;;;;-141.97;100.00;46193.13;5009180;28;20199;-87
2024/01/21 09:29:36;;;;;;;29.60;16.30;;;;;;;-141.97;100.00;46696.53;5013659;28;20206;-88
2024/01/21 09:32:02;;;;;;;23.47;12.97;;;;;;;-141.97;100.00;46262.28;5011347;28;20294;-87
2024/01/21 09:34:27;;;;;;;36.93;18.77;;;;;;;-141.97;100.00;46241.16;5011046;28;20171;-89
2024/01/21 09:36:53;;;;;;;41.43;20.63;;;;;;;-141.97;100.00;46120.13;5009957;28;20178;-89
2024/01/21 09:39:19;;;;;;;93.77;32.73;;;;;;;-141.97;100.00;46127.81;5025116;28;20178;-88
2024/01/21 09:41:49;;;;;;;55.67;24.40;;;;;;;-141.97;100.00;46269.97;5028098;28;20202;-87
2024/01/21 09:44:17;;;;;;;67.77;27.17;;;;;;;-141.97;100.00;46027.91;5011412;28;20294;-88
2024/01/21 09:46:43;;;;;;;66.10;29.00;;;;;;;-141.97;100.00;46093.22;5008636;28;20913;-88
2024/01/21 09:49:11;;;;;;;51.63;24.40;;;;;;;-141.97;100.00;46083.63;5010087;28;20421;-90
2024/01/21 09:51:37;;;;;;;103.27;43.87;;;;;;;-141.97;100.00;46229.63;5025051;28;20710;-89
2024/01/21 09:54:05;;;;;;;74.93;36.03;;;;;;;-141.97;100.00;46099.00;5010291;28;20546;-89
2024/01/21 09:56:30;;;;;;;69.53;33.77;;;;;;;-141.97;100.00;46145.09;5025337;28;20512;-89
2024/01/21 09:58:57;;;;;;;85.77;36.23;;;;;;;-141.97;100.00;46248.84;5010187;28;20421;-88
2024/01/21 10:01:23;;;;;;;32.93;16.33;;;;;;;-141.97;100.00;46143.19;5025079;28;20185;-88
2024/01/21 10:03:49;;;;;;;16.97;8.77;;;;;;;-141.97;100.00;46496.72;5025082;28;20412;-86
2024/01/21 10:06:16;;;;;;;26.27;12.47;;;;;;;-141.97;100.00;46592.78;5010250;28;20542;-88
2024/01/21 10:08:44;;;;;;;22.63;10.47;;;;;;;-141.97;100.00;46154.69;5028132;28;20402;-86
2024/01/21 10:11:10;;;;;;;19.07;10.17;;;;;;;-141.97;100.00;46514.00;5015740;28;20397;-87
2024/01/21 10:13:39;;;;;;;22.57;12.17;;;;;;;-141.97;100.00;46268.06;5013883;28;20492;-86
2024/01/21 10:16:06;;;;;;;33.03;16.57;;;;;;;-141.97;100.00;46273.81;5012834;28;20175;-87
2024/01/21 10:18:32;;;;;;;31.93;17.40;;;;;;;-141.97;100.00;46145.09;5019596;28;20403;-87
2024/01/21 10:20:58;;;;;;;31.93;17.07;;;;;;;-141.97;100.00;46268.06;5014230;28;20528;-87
2024/01/21 10:23:23;;;;;;;33.67;14.93;;;;;;;-141.97;100.00;46483.25;5014972;28;20253;-86
2024/01/21 10:25:49;;;;;;;43.97;20.97;;;;;;;-141.97;99.61;46106.66;5012786;28;20198;-86
2024/01/21 10:28:15;;;;;;;30.63;14.57;;;;;;;-141.97;98.60;46496.72;5015056;28;20635;-87
2024/01/21 10:30:44;;;;;;;44.10;19.20;;;;;;;-141.97;99.45;46060.56;5012562;28;20420;-87
2024/01/21 10:33:10;;;;;;;42.33;16.80;;;;;;;-141.97;98.05;46085.53;5029788;28;20167;-89
2024/01/21 10:35:36;;;;;;;37.67;15.17;;;;;;;-141.97;99.73;46642.75;5030544;28;20422;-86
2024/01/21 10:38:05;;;;;;;32.03;14.63;;;;;;;-141.97;100.00;46277.66;5028130;28;20452;-86
2024/01/21 10:40:32;;;;;;;27.53;13.80;;;;;;;-141.97;100.00;46231.56;5036754;28;20173;-87
2024/01/21 10:42:59;;;;;;;32.67;16.30;;;;;;;-141.97;100.00;46262.28;5039943;28;20420;-86
2024/01/21 10:45:31;;;;;;;30.93;16.53;;;;;;;-141.97;100.00;46246.94;5038145;28;20464;-86
2024/01/21 10:47:57;;;;;;;31.80;16.13;;;;;;;-141.97;100.00;46235.41;5033336;28;20416;-85
2024/01/21 10:50:24;;;;;;;19.40;10.23;;;;;;;-141.97;100.00;46193.13;5037934;28;20501;-86
2024/01/21 10:52:50;;;;;;;34.60;17.73;;;;;;;-141.97;100.00;46245.00;5036320;28;20472;-84
2024/01/21 10:55:16;;;;;;;25.67;11.83;;;;;;;-141.97;100.00;46266.13;5032093;28;20472;-84